createdAt,value
2022-12-01T00:01:17.265Z,80.87
2022-12-01T00:03:44.987Z,82.03
2022-12-01T00:06:15.523Z,87.63
2022-12-01T00:09:05.484Z,87.97
2022-12-01T00:11:34.302Z,82.57
2022-12-01T00:14:02.142Z,84.87
2022-12-01T00:16:30.372Z,92.83
2022-12-01T00:18:58.638Z,79.43
2022-12-01T00:21:27.510Z,89.37
2022-12-01T00:23:57.387Z,80.70
2022-12-01T00:26:25.522Z,82.30
2022-12-01T00:28:55.779Z,82.50
2022-12-01T00:31:23.736Z,85.47
2022-12-01T00:33:51.540Z,85.67
2022-12-01T00:36:19.286Z,84.23
2022-12-01T00:38:47.283Z,84.77
2022-12-01T00:41:15.031Z,81.83
2022-12-01T00:43:42.605Z,83.27
2022-12-01T00:46:11.598Z,87.20
2022-12-01T00:48:39.238Z,81.07
2022-12-01T00:51:07.150Z,92.83
2022-12-01T00:53:34.769Z,81.97
2022-12-01T00:56:02.394Z,79.83
2022-12-01T00:58:29.979Z,80.97
2022-12-01T01:00:58.880Z,82.00
2022-12-01T01:03:28.320Z,82.57
2022-12-01T01:05:56.017Z,82.60
2022-12-01T01:08:23.733Z,81.33
2022-12-01T01:10:51.299Z,82.63
2022-12-01T01:13:19.048Z,82.77
2022-12-01T01:15:46.645Z,81.27
2022-12-01T01:18:14.312Z,89.87
2022-12-01T01:20:43.198Z,93.00
2022-12-01T01:23:10.749Z,83.83
2022-12-01T01:25:38.366Z,79.23
2022-12-01T01:28:05.980Z,85.27
2022-12-01T01:30:33.828Z,84.00
2022-12-01T01:33:01.695Z,91.57
2022-12-01T01:35:29.451Z,89.50
2022-12-01T01:37:58.391Z,77.63
2022-12-01T01:40:25.982Z,97.73
2022-12-01T01:42:53.545Z,94.80
2022-12-01T01:45:22.827Z,77.40
2022-12-01T01:47:51.213Z,79.27
2022-12-01T01:50:21.665Z,83.83
2022-12-01T01:52:53.029Z,83.13
2022-12-01T01:55:22.141Z,82.27
2022-12-01T01:57:49.824Z,82.23
2022-12-01T02:00:20.304Z,94.80
2022-12-01T02:02:49.441Z,94.13
2022-12-01T02:05:19.453Z,94.23
2022-12-01T02:07:47.710Z,89.83
2022-12-01T02:10:22.236Z,89.03
2022-12-01T02:13:14.907Z,93.30
2022-12-01T02:15:45.986Z,90.83
2022-12-01T02:18:22.769Z,89.57
2022-12-01T02:21:25.575Z,84.57
2022-12-01T02:24:31.600Z,80.27
2022-12-01T02:27:03.768Z,89.47
2022-12-01T02:29:48.975Z,87.03
2022-12-01T02:32:22.205Z,90.33
2022-12-01T02:34:56.066Z,85.47
2022-12-01T02:37:28.986Z,87.30
2022-12-01T02:39:59.913Z,90.57
2022-12-01T02:42:50.529Z,94.50
2022-12-01T02:45:23.345Z,90.17
2022-12-01T02:47:54.298Z,95.10
2022-12-01T02:50:23.567Z,85.13
2022-12-01T02:52:51.388Z,106.97
2022-12-01T02:55:18.957Z,98.10
2022-12-01T02:57:46.643Z,95.90
2022-12-01T03:00:15.605Z,103.17
2022-12-01T03:02:51.711Z,100.33
2022-12-01T03:05:27.321Z,110.00
2022-12-01T03:08:02.073Z,94.17
2022-12-01T03:10:35.752Z,92.97
2022-12-01T03:13:11.377Z,86.63
2022-12-01T03:15:43.293Z,96.40
2022-12-01T03:18:20.529Z,85.93
2022-12-01T03:20:54.167Z,102.90
2022-12-01T03:23:24.267Z,105.70
2022-12-01T03:25:53.494Z,105.83
2022-12-01T03:28:23.753Z,104.00
2022-12-01T03:30:53.729Z,94.50
2022-12-01T03:33:26.408Z,107.53
2022-12-01T03:35:58.898Z,110.70
2022-12-01T03:38:27.457Z,117.67
2022-12-01T03:40:58.306Z,104.70
2022-12-01T03:43:28.914Z,102.23
2022-12-01T03:46:00.672Z,104.77
2022-12-01T03:48:28.855Z,110.23
2022-12-01T03:51:04.216Z,102.70
2022-12-01T03:53:35.372Z,105.50
2022-12-01T03:56:04.663Z,118.17
2022-12-01T03:58:35.447Z,97.27
2022-12-01T04:01:03.464Z,104.03
2022-12-01T04:03:31.007Z,102.90
2022-12-01T04:06:00.163Z,108.33
2022-12-01T04:08:27.804Z,102.77
2022-12-01T04:10:55.781Z,100.90
2022-12-01T04:13:23.267Z,116.27
2022-12-01T04:15:51.460Z,104.27
2022-12-01T04:18:19.624Z,118.57
2022-12-01T04:20:47.265Z,110.97
2022-12-01T04:23:36.693Z,101.93
2022-12-01T04:26:06.710Z,111.80
2022-12-01T04:28:36.515Z,101.60
2022-12-01T04:31:04.150Z,102.83
2022-12-01T05:04:19.528Z,96.73
2022-12-01T05:12:47.310Z,98.43
2022-12-01T05:50:03.766Z,100.27
2022-12-01T05:58:31.840Z,102.63
2022-12-01T06:06:29.615Z,98.67
2022-12-01T06:19:24.477Z,106.93
2022-12-01T06:26:13.078Z,107.90
2022-12-01T06:30:51.577Z,102.60
2022-12-01T06:37:55.279Z,109.93
2022-12-01T06:40:23.271Z,105.73
2022-12-01T06:42:53.096Z,100.47
2022-12-01T06:45:26.294Z,105.27
2022-12-01T06:47:55.250Z,96.20
2022-12-01T06:50:26.308Z,106.50
2022-12-01T06:53:02.802Z,112.87
2022-12-01T06:55:39.007Z,108.43
2022-12-01T06:58:07.479Z,102.57
2022-12-01T07:00:38.188Z,115.13
2022-12-01T07:05:58.681Z,102.80
2022-12-01T07:08:34.516Z,101.23
2022-12-01T07:11:04.291Z,102.23
2022-12-01T07:13:34.685Z,109.60
2022-12-01T07:16:06.412Z,103.13
2022-12-01T07:18:47.799Z,103.93
2022-12-01T07:21:27.741Z,106.53
2022-12-01T07:24:01.542Z,109.20
2022-12-01T07:26:39.771Z,95.20
2022-12-01T07:29:08.010Z,112.73
2022-12-01T07:31:38.396Z,108.67
2022-12-01T07:34:07.168Z,103.37
2022-12-01T07:36:47.385Z,123.47
2022-12-01T07:39:22.493Z,106.87
2022-12-01T07:41:52.044Z,107.33
2022-12-01T07:44:21.479Z,95.23
2022-12-01T07:46:53.481Z,88.63
2022-12-01T07:49:23.601Z,89.17
2022-12-01T07:51:56.889Z,104.00
2022-12-01T07:54:27.795Z,96.93
2022-12-01T07:57:03.571Z,97.10
2022-12-01T07:59:34.473Z,83.83
2022-12-01T08:02:06.735Z,88.17
2022-12-01T08:04:39.676Z,97.10
2022-12-01T08:07:08.011Z,95.23
2022-12-01T08:09:51.427Z,86.87
2022-12-01T08:12:36.266Z,90.27
2022-12-01T08:15:17.425Z,94.07
2022-12-01T08:17:50.401Z,86.70
2022-12-01T08:20:31.667Z,88.70
2022-12-01T08:23:08.100Z,100.13
2022-12-01T08:25:40.416Z,87.23
2022-12-01T08:28:13.498Z,85.80
2022-12-01T08:30:59.626Z,82.47
2022-12-01T08:33:47.196Z,92.87
2022-12-01T08:36:17.277Z,90.90
2022-12-01T08:38:55.914Z,84.00
2022-12-01T08:41:45.223Z,84.37
2022-12-01T08:44:17.267Z,83.93
2022-12-01T08:46:45.634Z,93.63
2022-12-01T08:49:15.839Z,84.47
2022-12-01T08:52:02.652Z,86.00
2022-12-01T08:54:30.658Z,85.60
2022-12-01T08:56:59.851Z,83.53
2022-12-01T08:59:27.729Z,87.27
2022-12-01T09:01:57.378Z,78.83
2022-12-01T09:04:27.075Z,87.07
2022-12-01T09:06:56.515Z,92.20
2022-12-01T09:09:26.401Z,79.53
2022-12-01T09:11:54.883Z,91.33
2022-12-01T09:14:24.567Z,82.00
2022-12-01T09:16:52.858Z,87.70
2022-12-01T09:19:25.059Z,79.03
2022-12-01T09:21:53.325Z,79.97
2022-12-01T09:24:23.232Z,102.10
2022-12-01T09:27:08.065Z,88.50
2022-12-01T09:29:40.424Z,88.40
2022-12-01T09:32:33.178Z,79.67
2022-12-01T09:35:02.505Z,78.00
2022-12-01T09:37:34.542Z,91.33
2022-12-01T09:40:19.394Z,82.70
2022-12-01T09:43:23.298Z,78.30
2022-12-01T09:45:57.141Z,86.07
2022-12-01T09:48:32.172Z,79.83
2022-12-01T09:52:15.109Z,82.53
2022-12-01T09:55:34.339Z,77.13
2022-12-01T09:58:22.242Z,81.43
2022-12-01T10:00:51.917Z,81.33
2022-12-01T10:03:41.252Z,80.57
2022-12-01T10:06:27.125Z,82.60
2022-12-01T10:13:23.593Z,76.03
2022-12-01T10:15:56.188Z,76.67
2022-12-01T10:18:36.480Z,77.73
2022-12-01T10:21:10.375Z,85.67
2022-12-01T10:23:52.985Z,84.53
2022-12-01T10:26:26.623Z,85.97
2022-12-01T10:29:01.537Z,83.17
2022-12-01T10:31:34.706Z,92.47
2022-12-01T10:34:06.254Z,83.57
2022-12-01T10:36:34.780Z,70.40
2022-12-01T10:39:03.266Z,72.27
2022-12-01T10:41:32.580Z,72.13
2022-12-01T10:44:01.603Z,59.17
2022-12-01T10:46:35.490Z,62.80
2022-12-01T10:49:10.986Z,58.83
2022-12-01T10:51:55.824Z,51.90
2022-12-01T10:54:25.487Z,58.43
2022-12-01T10:56:56.861Z,59.97
2022-12-01T10:59:28.378Z,59.80
2022-12-01T11:01:57.018Z,56.53
2022-12-01T11:04:46.261Z,49.80
2022-12-01T11:07:20.071Z,57.03
2022-12-01T11:09:56.478Z,53.03
2022-12-01T11:12:24.708Z,53.57
2022-12-01T11:14:54.231Z,56.40
2022-12-01T11:17:29.270Z,54.93
2022-12-01T11:19:58.900Z,61.10
2022-12-01T11:22:28.476Z,63.27
2022-12-01T11:25:01.621Z,55.90
2022-12-01T11:27:31.953Z,57.17
2022-12-01T11:30:04.842Z,69.47
2022-12-01T11:32:34.485Z,60.17
2022-12-01T11:35:05.797Z,71.97
2022-12-01T11:37:38.176Z,68.40
2022-12-01T11:40:10.011Z,83.97
2022-12-01T11:42:38.253Z,74.27
2022-12-01T11:45:09.985Z,78.30
2022-12-01T11:48:01.640Z,59.63
2022-12-01T11:50:32.894Z,75.10
2022-12-01T11:53:01.076Z,67.07
2022-12-01T11:55:29.930Z,63.57
2022-12-01T11:58:00.642Z,61.40
2022-12-01T12:00:30.309Z,67.33
2022-12-01T12:03:17.410Z,65.70
2022-12-01T12:09:06.061Z,57.87
2022-12-01T12:11:41.188Z,65.23
2022-12-01T12:14:26.579Z,54.23
2022-12-01T12:17:07.708Z,60.70
2022-12-01T12:20:08.229Z,76.10
2022-12-01T12:22:47.642Z,60.70
2022-12-01T12:25:25.360Z,60.40
2022-12-01T12:28:05.071Z,54.33
2022-12-01T12:30:35.608Z,64.57
2022-12-01T12:33:26.042Z,58.73
2022-12-01T12:36:00.645Z,69.10
2022-12-01T12:38:40.006Z,64.47
2022-12-01T12:41:17.744Z,62.83
2022-12-01T12:43:54.377Z,58.37
2022-12-01T12:46:27.779Z,67.63
2022-12-01T12:49:19.814Z,61.70
2022-12-01T12:51:50.555Z,59.20
2022-12-01T12:54:24.179Z,66.50
2022-12-01T12:56:56.578Z,71.90
2022-12-01T12:59:29.231Z,66.10
2022-12-01T13:02:02.530Z,67.83
2022-12-01T13:04:36.679Z,56.17
2022-12-01T13:07:07.486Z,53.97
2022-12-01T13:09:39.476Z,60.27
2022-12-01T13:12:15.556Z,52.47
2022-12-01T13:14:46.327Z,53.77
2022-12-01T13:17:18.342Z,46.00
2022-12-01T13:19:47.799Z,55.07
2022-12-01T13:22:17.739Z,45.93
2022-12-01T13:24:46.684Z,45.23
2022-12-01T13:27:18.381Z,46.40
2022-12-01T13:29:48.231Z,53.93
2022-12-01T13:32:30.045Z,52.90
2022-12-01T13:34:57.858Z,45.23
2022-12-01T13:37:29.817Z,43.87
2022-12-01T13:40:09.063Z,49.47
2022-12-01T13:42:37.261Z,47.67
2022-12-01T13:45:10.049Z,53.53
2022-12-01T13:47:50.711Z,39.83
2022-12-01T13:51:04.194Z,43.63
2022-12-01T13:53:33.981Z,48.17
2022-12-01T13:56:21.929Z,46.40
2022-12-01T13:58:50.655Z,41.07
2022-12-01T14:01:44.339Z,45.63
2022-12-01T14:04:29.124Z,45.80
2022-12-01T14:07:28.038Z,43.93
2022-12-01T14:10:00.144Z,47.67
2022-12-01T14:12:34.455Z,44.77
2022-12-01T14:15:05.614Z,42.50
2022-12-01T14:17:35.343Z,47.07
2022-12-01T14:20:09.113Z,43.83
2022-12-01T14:22:39.901Z,38.20
2022-12-01T14:25:23.775Z,47.90
2022-12-01T14:27:55.424Z,48.33
2022-12-01T14:31:00.978Z,30.00
2022-12-01T14:33:59.789Z,46.23
2022-12-01T14:36:35.913Z,35.93
2022-12-01T14:39:07.600Z,36.53
2022-12-01T14:41:42.429Z,40.77
2022-12-01T14:44:16.605Z,37.63
2022-12-01T14:46:47.114Z,49.30
2022-12-01T14:49:18.767Z,42.43
2022-12-01T14:51:48.544Z,42.07
2022-12-01T14:54:21.172Z,45.87
2022-12-01T14:56:54.080Z,44.63
2022-12-01T14:59:26.224Z,43.00
2022-12-01T15:01:57.386Z,48.13
2022-12-01T15:04:25.381Z,39.60
2022-12-01T15:06:57.198Z,40.83
2022-12-01T15:09:35.118Z,38.50
2022-12-01T15:12:07.391Z,39.37
2022-12-01T15:14:38.751Z,43.57
2022-12-01T15:17:08.902Z,40.90
2022-12-01T15:19:39.046Z,40.13
2022-12-01T15:22:11.601Z,36.47
2022-12-01T15:24:39.293Z,57.83
2022-12-01T15:27:24.876Z,41.87
2022-12-01T15:29:54.423Z,38.20
2022-12-01T15:32:23.261Z,36.73
2022-12-01T15:34:54.205Z,44.93
2022-12-01T15:37:23.213Z,36.17
2022-12-01T15:39:52.650Z,40.63
2022-12-01T15:42:24.195Z,36.40
2022-12-01T15:45:00.799Z,31.67
2022-12-01T15:47:35.760Z,37.83
2022-12-01T15:50:05.608Z,30.00
2022-12-01T15:52:33.955Z,32.83
2022-12-01T15:55:05.700Z,33.43
2022-12-01T15:57:33.499Z,36.90
2022-12-01T16:00:02.914Z,36.83
2022-12-01T16:02:40.829Z,37.80
2022-12-01T16:05:17.568Z,36.87
2022-12-01T16:08:12.510Z,33.23
2022-12-01T16:10:37.587Z,36.73
2022-12-01T16:13:36.842Z,40.20
2022-12-01T16:16:31.164Z,35.43
2022-12-01T16:19:00.595Z,42.23
2022-12-01T16:21:28.628Z,40.97
2022-12-01T16:24:01.337Z,51.00
2022-12-01T16:26:29.449Z,48.07
2022-12-01T16:28:57.620Z,46.10
2022-12-01T16:31:26.789Z,52.43
2022-12-01T16:34:13.775Z,57.93
2022-12-01T16:36:46.951Z,64.53
2022-12-01T16:39:15.194Z,74.23
2022-12-01T16:41:44.819Z,70.43
2022-12-01T16:44:27.955Z,59.93
2022-12-01T16:46:56.623Z,78.73
2022-12-01T16:49:25.820Z,73.53
2022-12-01T16:51:56.325Z,79.57
2022-12-01T16:54:25.357Z,84.27
2022-12-01T16:56:53.247Z,69.63
2022-12-01T16:59:21.466Z,83.47
2022-12-01T17:01:49.149Z,78.40
2022-12-01T17:04:16.905Z,69.47
2022-12-01T17:06:46.091Z,65.93
2022-12-01T17:09:13.837Z,93.07
2022-12-01T17:11:41.502Z,98.83
2022-12-01T17:14:09.144Z,74.63
2022-12-01T17:16:37.051Z,75.37
2022-12-01T17:19:05.416Z,73.90
2022-12-01T17:21:33.222Z,74.63
2022-12-01T17:24:02.261Z,73.67
2022-12-01T17:26:29.955Z,83.60
2022-12-01T17:28:57.638Z,70.60
2022-12-01T17:31:25.358Z,65.67
2022-12-01T17:33:53.040Z,81.03
2022-12-01T17:36:20.832Z,66.50
2022-12-01T17:38:49.732Z,68.17
2022-12-01T17:41:21.735Z,60.50
2022-12-01T17:43:49.436Z,58.40
2022-12-01T17:46:17.223Z,70.03
2022-12-01T17:48:47.206Z,67.23
2022-12-01T17:51:15.863Z,65.53
2022-12-01T17:53:43.724Z,62.87
2022-12-01T17:56:13.073Z,75.47
2022-12-01T17:58:42.527Z,68.20
2022-12-01T18:01:14.894Z,62.27
2022-12-01T18:03:42.833Z,56.30
2022-12-01T18:06:11.763Z,67.90
2022-12-01T18:08:39.926Z,68.27
2022-12-01T18:11:14.356Z,76.53
2022-12-01T18:13:45.002Z,72.57
2022-12-01T18:16:14.552Z,69.63
2022-12-01T18:18:42.452Z,63.20
2022-12-01T18:21:11.695Z,56.00
2022-12-01T18:23:40.026Z,54.43
2022-12-01T18:26:15.212Z,51.33
2022-12-01T18:28:45.391Z,55.87
2022-12-01T18:31:14.632Z,52.00
2022-12-01T18:33:44.870Z,53.57
2022-12-01T18:36:15.751Z,63.03
2022-12-01T18:38:46.768Z,60.77
2022-12-01T18:41:15.218Z,58.93
2022-12-01T18:43:42.844Z,56.00
2022-12-01T18:46:13.091Z,67.60
2022-12-01T18:48:45.590Z,55.27
2022-12-01T18:51:13.979Z,53.00
2022-12-01T18:53:42.140Z,62.93
2022-12-01T18:56:12.011Z,53.83
2022-12-01T18:58:40.749Z,59.93
2022-12-01T19:01:20.144Z,50.43
2022-12-01T19:03:47.940Z,52.83
2022-12-01T19:06:15.677Z,50.33
2022-12-01T19:08:43.435Z,54.53
2022-12-01T19:11:11.184Z,50.83
2022-12-01T19:13:38.901Z,53.30
2022-12-01T19:16:07.901Z,50.90
2022-12-01T19:18:37.254Z,47.03
2022-12-01T19:21:05.997Z,51.37
2022-12-01T19:23:34.263Z,53.23
2022-12-01T19:26:04.953Z,50.60
2022-12-01T19:28:33.370Z,49.63
2022-12-01T19:31:01.326Z,50.33
2022-12-01T19:33:29.315Z,53.90
2022-12-01T19:35:58.772Z,41.63
2022-12-01T19:38:26.552Z,51.27
2022-12-01T19:40:54.296Z,63.30
2022-12-01T19:43:22.025Z,52.03
2022-12-01T19:45:49.711Z,50.60
2022-12-01T19:48:17.561Z,48.07
2022-12-01T19:50:45.294Z,54.17
2022-12-01T19:53:14.295Z,53.20
2022-12-01T19:55:41.966Z,48.07
2022-12-01T19:58:09.581Z,48.40
2022-12-01T20:00:37.269Z,48.93
2022-12-01T20:03:05.445Z,49.73
2022-12-01T20:05:33.087Z,51.23
2022-12-01T20:08:02.332Z,57.53
2022-12-01T20:10:31.310Z,54.50
2022-12-01T20:12:59.013Z,58.80
2022-12-01T20:15:26.629Z,65.23
2022-12-01T20:17:54.276Z,58.30
2022-12-01T20:20:21.905Z,55.37
2022-12-01T20:22:49.665Z,60.33
2022-12-01T20:25:17.982Z,64.13
2022-12-01T20:27:46.909Z,56.10
2022-12-01T20:30:15.901Z,62.13
2022-12-01T20:32:43.516Z,58.03
2022-12-01T20:35:12.322Z,58.13
2022-12-01T20:37:39.990Z,86.73
2022-12-01T20:40:08.827Z,63.90
2022-12-01T20:42:39.532Z,60.50
2022-12-01T20:45:08.878Z,69.13
2022-12-01T20:47:36.836Z,66.10
2022-12-01T20:50:05.382Z,75.33
2022-12-01T20:52:33.022Z,62.03
2022-12-01T20:55:00.615Z,64.43
2022-12-01T20:57:28.536Z,59.07
2022-12-01T20:59:56.157Z,61.13
2022-12-01T21:02:25.120Z,60.57
2022-12-01T21:04:56.353Z,55.73
2022-12-01T21:07:26.526Z,57.93
2022-12-01T21:09:54.168Z,51.33
2022-12-01T21:12:39.377Z,61.50
2022-12-01T21:15:14.358Z,63.23
2022-12-01T21:17:46.736Z,62.70
2022-12-01T21:20:21.652Z,55.50
2022-12-01T21:22:50.667Z,56.03
2022-12-01T21:25:20.747Z,63.77
2022-12-01T21:27:49.121Z,67.37
2022-12-01T21:30:18.850Z,61.50
2022-12-01T21:32:48.886Z,64.83
2022-12-01T21:35:19.478Z,58.67
2022-12-01T21:37:47.686Z,56.93
2022-12-01T21:40:17.741Z,62.37
2022-12-01T21:42:45.683Z,58.07
2022-12-01T21:45:22.972Z,73.80
2022-12-01T21:47:51.985Z,70.60
2022-12-01T21:50:23.333Z,62.97
2022-12-01T21:52:51.410Z,57.17
2022-12-01T21:55:34.867Z,69.53
2022-12-01T21:58:02.827Z,66.83
2022-12-01T22:00:32.245Z,62.63
2022-12-01T22:03:16.912Z,56.33
2022-12-01T22:06:01.145Z,55.80
2022-12-01T22:08:35.925Z,53.70
2022-12-01T22:11:05.581Z,51.13
2022-12-01T22:13:42.306Z,62.73
2022-12-01T22:16:18.110Z,55.27
2022-12-01T22:18:50.341Z,55.13
2022-12-01T22:21:32.400Z,54.93
2022-12-01T22:24:19.123Z,61.83
2022-12-01T22:26:49.360Z,62.73
2022-12-01T22:29:28.712Z,56.30
2022-12-01T22:32:29.170Z,54.17
2022-12-01T22:35:00.105Z,48.23
2022-12-01T22:37:34.958Z,62.80
2022-12-01T22:40:02.828Z,65.37
2022-12-01T22:42:32.937Z,58.73
2022-12-01T22:45:01.823Z,54.53
2022-12-01T22:47:32.792Z,69.87
2022-12-01T22:50:01.714Z,70.57
2022-12-01T22:52:30.767Z,76.10
2022-12-01T22:54:58.333Z,52.67
2022-12-01T22:57:31.079Z,64.53
2022-12-01T22:59:59.033Z,72.27
2022-12-01T23:02:31.726Z,56.13
2022-12-01T23:05:02.749Z,62.30
2022-12-01T23:07:33.237Z,62.17
2022-12-01T23:10:08.439Z,47.83
2022-12-01T23:12:36.993Z,56.80
2022-12-01T23:15:23.583Z,56.10
2022-12-01T23:17:51.416Z,56.60
2022-12-01T23:20:27.834Z,48.20
2022-12-01T23:22:56.417Z,49.00
2022-12-01T23:25:25.046Z,39.70
2022-12-01T23:27:54.001Z,43.90
2022-12-01T23:30:22.967Z,52.63
2022-12-01T23:32:58.572Z,53.73
2022-12-01T23:35:27.632Z,51.10
2022-12-01T23:37:55.321Z,53.20
2022-12-01T23:40:29.154Z,56.83
2022-12-01T23:42:59.546Z,49.93
2022-12-01T23:45:28.391Z,55.50
2022-12-01T23:47:56.682Z,55.60
2022-12-01T23:50:27.476Z,62.60
2022-12-01T23:52:55.068Z,65.37
2022-12-01T23:55:24.382Z,68.30
2022-12-01T23:57:52.526Z,58.67
